createdAt,value
2019-02-10T20:55:19.537Z,71.47
2019-02-10T20:57:49.813Z,78.03
2019-02-10T21:00:24.811Z,77.70
2019-02-10T21:02:55.127Z,65.90
2019-02-10T21:05:26.711Z,74.60
2019-02-10T21:08:06.151Z,92.23
2019-02-10T21:10:39.364Z,80.00
2019-02-10T21:13:15.437Z,66.30
2019-02-10T21:15:54.522Z,63.43
2019-02-10T21:18:27.573Z,66.97
2019-02-10T21:21:00.916Z,54.37
2019-02-10T21:23:33.953Z,55.80
2019-02-10T21:26:20.199Z,54.67
2019-02-10T21:28:56.236Z,58.70
2019-02-10T21:31:42.499Z,58.80
2019-02-10T21:34:12.805Z,55.10
2019-02-10T21:36:52.171Z,55.77
2019-02-10T21:39:37.351Z,61.27
2019-02-10T21:42:13.411Z,53.80
2019-02-10T21:44:46.465Z,53.97
2019-02-10T21:47:25.854Z,42.10
2019-02-10T21:49:54.585Z,39.53
2019-02-10T21:52:23.279Z,39.67
2019-02-10T21:54:51.975Z,48.63
2019-02-10T21:57:20.710Z,50.27
2019-02-10T21:59:49.408Z,37.10
2019-02-10T22:02:18.107Z,29.17
2019-02-10T22:04:46.843Z,40.93
2019-02-10T22:07:15.538Z,36.13
2019-02-10T22:09:44.230Z,36.03
2019-02-10T22:12:12.954Z,33.13
2019-02-10T22:14:41.580Z,34.27
2019-02-10T22:17:10.272Z,37.47
2019-02-10T22:19:38.935Z,30.07
2019-02-10T22:22:07.629Z,34.90
2019-02-10T22:24:36.338Z,32.87
2019-02-10T22:27:05.058Z,40.37
2019-02-10T22:29:33.686Z,34.20
2019-02-10T22:32:02.306Z,33.40
2019-02-10T22:34:30.890Z,40.37
2019-02-10T22:36:59.503Z,44.57
2019-02-10T22:39:28.136Z,42.77
2019-02-10T22:41:56.783Z,33.63
2019-02-10T22:44:25.444Z,35.87
2019-02-10T22:46:54.046Z,41.33
2019-02-10T22:49:22.695Z,31.50
2019-02-10T22:51:51.324Z,41.77
2019-02-10T22:54:19.950Z,37.27
2019-02-10T22:56:48.536Z,66.07
2019-02-10T22:59:17.173Z,56.70
2019-02-10T23:01:45.791Z,79.27
2019-02-10T23:04:14.390Z,104.43
2019-02-10T23:06:43.013Z,68.70
2019-02-10T23:09:13.267Z,54.17
2019-02-10T23:11:41.853Z,42.03
2019-02-10T23:14:10.552Z,49.67
2019-02-10T23:16:39.179Z,53.57
2019-02-10T23:19:07.770Z,62.73
2019-02-10T23:21:36.391Z,62.57
2019-02-10T23:24:05.014Z,61.87
2019-02-10T23:26:33.598Z,35.47
2019-02-10T23:29:02.236Z,41.63
2019-02-10T23:31:30.790Z,38.27
2019-02-10T23:33:59.386Z,51.57
2019-02-10T23:36:28.015Z,73.70
2019-02-10T23:38:56.630Z,50.93
2019-02-10T23:41:25.294Z,47.27
2019-02-10T23:43:53.909Z,61.73
2019-02-10T23:46:22.547Z,46.67
2019-02-10T23:48:51.188Z,65.53
2019-02-10T23:51:19.822Z,43.07
2019-02-10T23:53:48.440Z,45.30
2019-02-10T23:56:17.099Z,38.40
2019-02-10T23:58:45.645Z,35.67
